createdAt,value
2022-11-10T00:01:10.508Z,3.10
2022-11-10T00:03:40.230Z,3.00
2022-11-10T00:06:09.573Z,3.40
2022-11-10T00:08:36.644Z,3.30
2022-11-10T00:11:07.947Z,2.90
2022-11-10T00:13:57.481Z,3.20
2022-11-10T00:16:43.051Z,3.10
2022-11-10T00:19:10.203Z,2.70
2022-11-10T00:21:37.948Z,2.97
2022-11-10T00:24:05.392Z,2.90
2022-11-10T00:26:32.277Z,3.50
2022-11-10T00:28:59.239Z,3.50
2022-11-10T00:31:28.477Z,3.17
2022-11-10T00:33:55.855Z,2.93
2022-11-10T00:36:23.635Z,3.37
2022-11-10T00:38:51.737Z,3.53
2022-11-10T00:41:18.675Z,3.50
2022-11-10T00:43:45.576Z,2.93
2022-11-10T00:46:12.917Z,2.80
2022-11-10T00:48:39.842Z,3.50
2022-11-10T00:51:07.455Z,3.30
2022-11-10T00:53:34.373Z,3.33
2022-11-10T00:56:01.439Z,3.00
2022-11-10T00:58:28.320Z,2.90
2022-11-10T01:01:05.675Z,3.93
2022-11-10T01:03:33.694Z,3.10
2022-11-10T01:06:06.869Z,3.40
2022-11-10T01:08:33.809Z,2.73
2022-11-10T01:11:15.263Z,3.57
2022-11-10T01:13:43.103Z,3.70
2022-11-10T01:16:17.079Z,3.33
2022-11-10T01:18:44.016Z,2.80
2022-11-10T01:21:10.992Z,3.00
2022-11-10T01:23:37.948Z,3.30
2022-11-10T01:26:07.072Z,3.00
2022-11-10T01:28:36.040Z,3.17
2022-11-10T01:31:08.833Z,3.47
2022-11-10T01:33:36.894Z,2.57
2022-11-10T01:36:05.184Z,2.90
2022-11-10T01:38:36.393Z,3.20
2022-11-10T01:41:07.356Z,2.80
2022-11-10T01:43:34.479Z,2.67
2022-11-10T01:46:04.233Z,2.70
2022-11-10T01:49:03.635Z,2.67
2022-11-10T01:51:52.669Z,3.83
2022-11-10T01:54:26.122Z,4.03
2022-11-10T01:56:59.385Z,2.77
2022-11-10T01:59:31.002Z,3.27
2022-11-10T02:02:12.579Z,2.93
2022-11-10T02:04:41.562Z,2.70
2022-11-10T02:07:09.813Z,3.60
2022-11-10T02:09:36.928Z,3.00
2022-11-10T02:12:04.339Z,2.73
2022-11-10T02:14:31.327Z,2.90
2022-11-10T02:16:58.715Z,2.53
2022-11-10T02:19:26.883Z,2.50
2022-11-10T02:21:53.804Z,2.90
2022-11-10T02:24:20.707Z,2.80
2022-11-10T02:26:54.075Z,2.47
2022-11-10T02:29:21.187Z,3.00
2022-11-10T02:31:48.078Z,3.23
2022-11-10T02:34:15.568Z,2.63
2022-11-10T02:36:42.452Z,3.10
2022-11-10T02:39:09.435Z,2.70
2022-11-10T02:41:36.357Z,2.80
2022-11-10T02:44:04.531Z,2.97
2022-11-10T02:46:31.469Z,2.60
2022-11-10T02:48:58.457Z,3.13
2022-11-10T02:51:25.346Z,2.77
2022-11-10T02:53:52.256Z,2.50
2022-11-10T02:56:19.160Z,3.10
2022-11-10T02:58:46.162Z,2.63
2022-11-10T03:01:13.136Z,2.37
2022-11-10T03:03:40.151Z,3.37
2022-11-10T03:06:07.103Z,2.90
2022-11-10T03:08:34.049Z,2.80
2022-11-10T03:11:00.948Z,2.13
2022-11-10T03:13:40.174Z,2.80
2022-11-10T03:16:14.774Z,2.87
2022-11-10T03:18:41.662Z,2.83
2022-11-10T03:21:08.619Z,3.10
2022-11-10T03:23:36.477Z,2.90
2022-11-10T03:26:07.337Z,3.00
2022-11-10T03:28:34.878Z,2.70
2022-11-10T03:31:01.793Z,2.60
2022-11-10T03:33:28.698Z,3.23
2022-11-10T03:35:55.778Z,2.80
2022-11-10T03:38:22.653Z,2.80
2022-11-10T03:41:17.469Z,3.63
2022-11-10T03:43:37.973Z,2.70
2022-11-10T03:46:04.928Z,3.30
2022-11-10T03:48:31.808Z,2.50
2022-11-10T03:50:58.707Z,2.97
2022-11-10T03:53:25.712Z,2.90
2022-11-10T03:55:52.687Z,2.73
2022-11-10T03:58:19.664Z,3.00
2022-11-10T04:00:46.556Z,2.93
2022-11-10T04:03:13.548Z,2.60
2022-11-10T04:05:58.772Z,3.13
2022-11-10T04:08:44.170Z,2.67
2022-11-10T04:11:11.054Z,2.60
2022-11-10T04:13:56.426Z,3.57
2022-11-10T04:16:23.362Z,2.80
2022-11-10T04:18:50.280Z,3.10
2022-11-10T04:21:17.240Z,3.10
2022-11-10T04:23:44.148Z,3.00
2022-11-10T04:26:29.044Z,2.97
2022-11-10T04:28:59.868Z,2.97
2022-11-10T04:31:30.248Z,2.80
2022-11-10T04:33:58.052Z,3.47
2022-11-10T04:36:28.732Z,3.00
2022-11-10T04:38:56.828Z,2.77
2022-11-10T04:41:26.806Z,2.77
2022-11-10T04:43:54.159Z,2.87
2022-11-10T04:46:31.302Z,2.47
2022-11-10T04:48:59.123Z,2.60
2022-11-10T04:51:47.127Z,2.87
2022-11-10T04:54:14.121Z,2.83
2022-11-10T04:56:41.138Z,3.13
2022-11-10T04:59:08.357Z,3.80
2022-11-10T05:01:35.429Z,3.87
2022-11-10T05:04:02.469Z,2.50
2022-11-10T05:06:29.673Z,2.80
2022-11-10T05:08:56.640Z,3.13
2022-11-10T05:11:23.592Z,3.03
2022-11-10T05:13:50.932Z,3.07
2022-11-10T05:16:18.019Z,2.63
2022-11-10T05:18:45.034Z,2.60
2022-11-10T05:21:11.911Z,3.13
2022-11-10T05:23:38.938Z,2.73
2022-11-10T05:26:15.142Z,3.20
2022-11-10T05:28:44.789Z,4.43
2022-11-10T05:31:12.429Z,2.67
2022-11-10T05:33:39.951Z,3.53
2022-11-10T05:36:08.181Z,3.30
2022-11-10T05:38:40.214Z,3.00
2022-11-10T05:41:10.552Z,2.83
2022-11-10T05:43:37.527Z,2.90
2022-11-10T05:46:04.463Z,3.13
2022-11-10T05:48:31.331Z,3.07
2022-11-10T05:50:58.270Z,3.53
2022-11-10T05:53:25.461Z,2.73
2022-11-10T05:55:52.519Z,2.90
2022-11-10T05:58:19.410Z,3.17
2022-11-10T06:00:46.347Z,2.93
2022-11-10T06:03:16.658Z,3.10
2022-11-10T06:05:43.936Z,2.80
2022-11-10T06:08:12.087Z,3.50
2022-11-10T06:10:40.344Z,3.10
2022-11-10T06:13:07.655Z,3.57
2022-11-10T06:15:34.612Z,3.67
2022-11-10T06:18:02.165Z,3.87
2022-11-10T06:20:29.744Z,4.07
2022-11-10T06:23:08.140Z,2.97
2022-11-10T06:25:36.739Z,3.50
2022-11-10T06:28:04.712Z,2.87
2022-11-10T06:30:34.683Z,3.40
2022-11-10T06:33:02.235Z,3.00
2022-11-10T06:35:30.108Z,2.93
2022-11-10T06:38:09.463Z,2.90
2022-11-10T06:40:36.369Z,3.57
2022-11-10T06:43:03.455Z,3.10
2022-11-10T06:45:30.651Z,3.13
2022-11-10T06:48:16.594Z,3.53
2022-11-10T06:50:43.520Z,4.23
2022-11-10T06:53:11.288Z,3.67
2022-11-10T06:55:38.223Z,3.20
2022-11-10T06:58:05.295Z,4.53
2022-11-10T07:00:32.193Z,3.00
2022-11-10T07:03:01.366Z,3.23
2022-11-10T07:05:28.310Z,3.27
2022-11-10T07:07:55.235Z,3.57
2022-11-10T07:10:22.120Z,2.97
2022-11-10T07:12:49.175Z,2.73
2022-11-10T07:15:16.155Z,2.57
2022-11-10T07:17:43.219Z,3.80
2022-11-10T07:20:10.653Z,3.27
2022-11-10T07:22:38.066Z,3.07
2022-11-10T07:25:05.600Z,3.03
2022-11-10T07:27:32.530Z,2.63
2022-11-10T07:29:59.396Z,3.90
2022-11-10T07:32:26.411Z,3.60
2022-11-10T07:34:53.266Z,2.90
2022-11-10T07:37:20.172Z,3.70
2022-11-10T07:39:47.038Z,2.47
2022-11-10T07:42:14.095Z,2.97
2022-11-10T07:44:40.971Z,2.80
2022-11-10T07:47:08.044Z,2.47
2022-11-10T07:49:34.951Z,3.27
2022-11-10T07:52:01.955Z,2.90
2022-11-10T07:54:28.857Z,2.43
2022-11-10T07:56:55.756Z,2.50
2022-11-10T07:59:22.694Z,2.63
2022-11-10T08:01:49.629Z,2.43
2022-11-10T08:04:16.633Z,3.10
2022-11-10T08:06:43.580Z,2.67
2022-11-10T08:09:10.561Z,2.60
2022-11-10T08:11:37.608Z,2.73
2022-11-10T08:14:04.652Z,3.17
2022-11-10T08:16:31.539Z,3.13
2022-11-10T08:18:58.733Z,2.47
2022-11-10T08:21:25.647Z,2.93
2022-11-10T08:23:52.549Z,2.50
2022-11-10T08:26:19.421Z,2.10
2022-11-10T08:28:46.875Z,2.47
2022-11-10T08:31:13.779Z,3.37
2022-11-10T08:33:40.712Z,2.63
2022-11-10T08:36:08.382Z,3.50
2022-11-10T08:38:35.255Z,2.50
2022-11-10T08:41:02.137Z,2.70
2022-11-10T08:43:29.025Z,2.27
2022-11-10T08:45:59.143Z,2.60
2022-11-10T08:48:26.025Z,2.73
2022-11-10T08:50:52.978Z,3.40
2022-11-10T08:53:25.138Z,3.20
2022-11-10T08:55:53.444Z,4.00
2022-11-10T08:58:23.701Z,4.53
2022-11-10T09:00:51.287Z,4.60
2022-11-10T09:03:21.382Z,4.80
2022-11-10T09:05:56.662Z,5.03
2022-11-10T09:08:25.489Z,4.70
2022-11-10T09:10:52.801Z,4.70
2022-11-10T09:13:29.193Z,5.00
2022-11-10T09:16:02.125Z,5.30
2022-11-10T09:18:29.729Z,4.60
2022-11-10T09:20:57.054Z,4.73
2022-11-10T09:23:25.266Z,5.07
2022-11-10T09:25:55.227Z,5.80
2022-11-10T09:28:23.522Z,5.00
2022-11-10T09:30:52.175Z,5.33
2022-11-10T09:33:19.351Z,5.83
2022-11-10T09:35:46.397Z,4.90
2022-11-10T09:38:13.312Z,5.50
2022-11-10T09:40:59.241Z,5.30
2022-11-10T09:43:59.478Z,5.40
2022-11-10T09:46:40.185Z,5.83
2022-11-10T09:49:30.874Z,5.63
2022-11-10T09:52:00.404Z,5.37
2022-11-10T09:54:51.152Z,4.73
2022-11-10T09:57:24.005Z,5.33
2022-11-10T09:59:51.413Z,5.13
2022-11-10T10:02:24.507Z,5.10
2022-11-10T10:05:18.840Z,4.63
2022-11-10T10:08:02.723Z,5.50
2022-11-10T10:10:50.276Z,4.73
2022-11-10T10:13:45.938Z,5.43
2022-11-10T10:16:36.581Z,5.43
2022-11-10T10:19:27.534Z,4.87
2022-11-10T10:22:09.264Z,5.60
2022-11-10T10:24:38.218Z,5.57
2022-11-10T10:27:09.931Z,5.10
2022-11-10T10:29:43.921Z,4.93
2022-11-10T10:32:14.388Z,4.60
2022-11-10T10:34:43.572Z,5.00
2022-11-10T10:37:28.798Z,5.07
2022-11-10T10:39:56.114Z,4.80
2022-11-10T10:42:36.173Z,4.90
2022-11-10T10:45:28.711Z,4.50
2022-11-10T10:47:57.484Z,3.93
2022-11-10T10:50:37.046Z,4.57
2022-11-10T10:53:24.652Z,4.30
2022-11-10T10:56:03.563Z,4.13
2022-11-10T10:58:35.338Z,4.47
2022-11-10T11:01:21.741Z,4.07
2022-11-10T11:03:53.023Z,3.90
2022-11-10T11:06:27.651Z,4.30
2022-11-10T11:08:59.892Z,3.80
2022-11-10T11:11:30.564Z,4.23
2022-11-10T11:14:25.874Z,3.17
2022-11-10T11:17:22.728Z,2.90
2022-11-10T11:19:59.789Z,3.20
2022-11-10T11:22:48.294Z,2.50
2022-11-10T11:25:37.827Z,2.50
2022-11-10T11:28:41.678Z,2.80
2022-11-10T11:31:17.676Z,2.90
2022-11-10T11:34:13.377Z,2.75
2022-11-10T11:37:10.546Z,2.38
2022-11-10T11:40:14.997Z,2.53
2022-11-10T11:43:31.777Z,2.90
2022-11-10T11:46:49.267Z,2.00
2022-11-10T11:49:41.359Z,2.63
2022-11-10T11:52:41.236Z,2.27
2022-11-10T11:55:31.246Z,2.13
2022-11-10T11:58:39.460Z,1.97
2022-11-10T12:01:34.148Z,1.90
2022-11-10T12:04:29.264Z,2.07
2022-11-10T12:07:10.421Z,2.22
2022-11-10T12:10:02.538Z,2.20
2022-11-10T12:13:09.207Z,1.87
2022-11-10T12:15:50.262Z,2.20
2022-11-10T12:18:31.469Z,2.28
2022-11-10T12:21:01.351Z,2.20
2022-11-10T12:23:59.499Z,2.67
2022-11-10T12:27:01.173Z,2.30
2022-11-10T12:29:39.876Z,2.00
2022-11-10T12:32:25.119Z,2.35
2022-11-10T12:35:26.545Z,2.30
2022-11-10T12:38:05.260Z,2.38
2022-11-10T12:40:41.798Z,2.13
2022-11-10T12:43:57.305Z,2.30
2022-11-10T12:46:24.221Z,2.40
2022-11-10T12:49:19.950Z,2.25
2022-11-10T12:52:30.823Z,1.90
2022-11-10T12:54:57.985Z,1.98
2022-11-10T12:57:27.415Z,2.10
2022-11-10T13:00:00.885Z,2.73
2022-11-10T13:02:34.667Z,1.80
2022-11-10T13:05:27.088Z,2.20
2022-11-10T13:08:16.818Z,2.33
2022-11-10T13:11:24.763Z,2.40
2022-11-10T13:14:00.151Z,1.97
2022-11-10T13:16:39.183Z,2.13
2022-11-10T13:19:11.247Z,2.00
2022-11-10T13:21:53.436Z,2.33
2022-11-10T13:24:30.038Z,2.00
2022-11-10T13:26:59.833Z,1.88
2022-11-10T13:29:37.350Z,1.83
2022-11-10T13:32:33.299Z,2.22
2022-11-10T13:35:28.112Z,1.80
2022-11-10T13:37:57.055Z,2.40
2022-11-10T13:40:23.984Z,1.97
2022-11-10T13:43:00.028Z,2.07
2022-11-10T13:45:33.088Z,2.13
2022-11-10T13:48:11.927Z,1.75
2022-11-10T13:51:20.516Z,1.70
2022-11-10T13:54:19.537Z,1.80
2022-11-10T13:57:17.957Z,1.63
2022-11-10T13:59:55.675Z,1.27
2022-11-10T14:02:34.769Z,1.60
2022-11-10T14:05:04.156Z,1.93
2022-11-10T14:07:39.483Z,1.60
2022-11-10T14:10:17.818Z,1.53
2022-11-10T14:13:02.816Z,1.77
2022-11-10T14:15:45.262Z,1.60
2022-11-10T14:18:25.147Z,1.50
2022-11-10T14:20:58.560Z,1.63
2022-11-10T14:23:54.053Z,1.97
2022-11-10T14:26:51.784Z,1.33
2022-11-10T14:29:39.290Z,1.70
2022-11-10T14:32:19.844Z,1.90
2022-11-10T14:34:57.769Z,1.90
2022-11-10T14:37:28.233Z,1.67
2022-11-10T14:40:01.650Z,1.70
2022-11-10T14:42:33.862Z,2.00
2022-11-10T14:45:23.675Z,1.50
2022-11-10T14:47:55.850Z,1.50
2022-11-10T14:50:34.629Z,1.80
2022-11-10T14:53:08.105Z,2.07
2022-11-10T14:55:36.732Z,1.60
2022-11-10T14:58:13.533Z,1.80
2022-11-10T15:00:42.884Z,1.50
2022-11-10T15:03:18.738Z,1.60
2022-11-10T15:05:46.001Z,1.40
2022-11-10T15:08:16.308Z,1.63
2022-11-10T15:10:47.051Z,1.70
2022-11-10T15:13:13.891Z,1.80
2022-11-10T15:15:41.795Z,1.97
2022-11-10T15:18:30.019Z,1.80
2022-11-10T15:21:04.885Z,1.60
2022-11-10T15:23:37.917Z,2.03
2022-11-10T15:26:06.117Z,1.63
2022-11-10T15:28:36.854Z,1.93
2022-11-10T15:31:11.062Z,1.87
2022-11-10T15:33:39.412Z,1.73
2022-11-10T15:36:27.811Z,1.90
2022-11-10T15:39:18.177Z,1.80
2022-11-10T15:41:47.543Z,1.70
2022-11-10T15:44:22.053Z,1.97
2022-11-10T15:46:55.753Z,1.93
2022-11-10T15:49:29.911Z,1.87
2022-11-10T15:52:03.573Z,3.53
2022-11-10T15:54:35.814Z,2.13
2022-11-10T15:57:02.801Z,2.10
2022-11-10T15:59:29.801Z,2.07
2022-11-10T16:01:57.274Z,2.20
2022-11-10T16:04:27.397Z,2.53
2022-11-10T16:06:54.388Z,2.50
2022-11-10T16:09:21.346Z,2.60
2022-11-10T16:11:48.325Z,2.60
2022-11-10T16:14:17.090Z,2.47
2022-11-10T16:16:44.458Z,2.37
2022-11-10T16:19:12.641Z,2.60
2022-11-10T16:21:39.745Z,2.33
2022-11-10T16:24:06.920Z,2.90
2022-11-10T16:26:35.352Z,2.50
2022-11-10T16:29:02.407Z,2.53
2022-11-10T16:31:31.715Z,2.53
2022-11-10T16:33:58.680Z,2.87
2022-11-10T16:36:30.958Z,2.67
2022-11-10T16:39:02.051Z,3.27
2022-11-10T16:41:28.989Z,2.60
2022-11-10T16:43:55.986Z,2.47
2022-11-10T16:46:29.129Z,2.40
2022-11-10T16:49:01.133Z,2.33
2022-11-10T16:51:40.923Z,2.97
2022-11-10T16:54:13.786Z,2.37
2022-11-10T16:56:40.658Z,3.87
2022-11-10T16:59:07.637Z,2.73
2022-11-10T17:01:36.261Z,2.90
2022-11-10T17:04:09.033Z,2.90
2022-11-10T17:06:36.623Z,3.27
2022-11-10T17:09:17.153Z,2.87
2022-11-10T17:11:44.479Z,2.67
2022-11-10T17:14:13.416Z,2.77
2022-11-10T17:16:43.911Z,3.13
2022-11-10T17:19:23.509Z,2.37
2022-11-10T17:21:53.873Z,2.67
2022-11-10T17:24:21.623Z,2.80
2022-11-10T17:26:49.856Z,2.33
2022-11-10T17:29:21.202Z,2.47
2022-11-10T17:31:50.352Z,2.70
2022-11-10T17:34:17.396Z,2.50
2022-11-10T17:36:44.519Z,2.40
2022-11-10T17:39:15.028Z,2.60
2022-11-10T17:41:42.020Z,3.50
2022-11-10T17:44:18.244Z,2.87
2022-11-10T17:46:45.139Z,2.57
2022-11-10T17:49:12.213Z,2.83
2022-11-10T17:51:40.474Z,3.47
2022-11-10T17:54:14.122Z,2.80
2022-11-10T17:56:41.200Z,2.43
2022-11-10T17:59:08.123Z,2.80
2022-11-10T18:01:35.130Z,3.00
2022-11-10T18:04:02.068Z,2.67
2022-11-10T18:06:29.087Z,2.87
2022-11-10T18:08:56.079Z,2.93
2022-11-10T18:11:22.964Z,2.60
2022-11-10T18:13:50.110Z,3.10
2022-11-10T18:16:17.010Z,3.30
2022-11-10T18:18:43.913Z,3.50
2022-11-10T18:21:11.023Z,3.77
2022-11-10T18:23:37.911Z,3.67
2022-11-10T18:26:07.245Z,3.63
2022-11-10T18:28:35.483Z,3.70
2022-11-10T18:31:12.553Z,4.10
2022-11-10T18:33:39.540Z,3.80
2022-11-10T18:36:06.982Z,3.77
2022-11-10T18:38:33.959Z,4.17
2022-11-10T18:41:25.707Z,4.13
2022-11-10T18:43:52.884Z,3.90
2022-11-10T18:46:19.916Z,4.50
2022-11-10T18:48:47.774Z,4.13
2022-11-10T18:51:15.720Z,4.10
2022-11-10T18:53:42.632Z,4.60
2022-11-10T18:56:09.527Z,3.73
2022-11-10T18:58:36.439Z,3.90
2022-11-10T19:01:08.968Z,4.20
2022-11-10T19:03:37.430Z,4.57
2022-11-10T19:06:05.746Z,4.60
2022-11-10T19:08:32.666Z,4.37
2022-11-10T19:10:59.886Z,4.47
2022-11-10T19:13:26.951Z,4.50
2022-11-10T19:15:55.760Z,4.93
2022-11-10T19:18:22.701Z,4.80
2022-11-10T19:20:49.612Z,4.80
2022-11-10T19:23:17.735Z,4.50
2022-11-10T19:25:44.726Z,5.30
2022-11-10T19:28:11.715Z,4.87
2022-11-10T19:30:39.325Z,4.87
2022-11-10T19:33:06.419Z,5.27
2022-11-10T19:35:33.366Z,5.03
2022-11-10T19:38:00.309Z,5.30
2022-11-10T19:40:27.215Z,5.23
2022-11-10T19:42:54.176Z,5.57
2022-11-10T19:45:21.093Z,6.00
2022-11-10T19:47:48.018Z,6.10
2022-11-10T19:50:15.201Z,5.70
2022-11-10T19:52:42.143Z,5.57
2022-11-10T19:55:09.049Z,6.53
2022-11-10T19:57:35.955Z,6.47
2022-11-10T20:00:03.548Z,6.07
2022-11-10T20:02:30.530Z,6.90
2022-11-10T20:05:12.388Z,6.43
2022-11-10T20:07:58.434Z,7.63
2022-11-10T20:10:25.400Z,7.87
2022-11-10T20:12:52.422Z,7.87
2022-11-10T20:15:19.388Z,7.53
2022-11-10T20:17:46.315Z,8.10
2022-11-10T20:20:13.629Z,8.03
2022-11-10T20:22:40.749Z,8.30
2022-11-10T20:25:08.913Z,8.53
2022-11-10T20:27:36.071Z,9.43
2022-11-10T20:30:03.215Z,10.20
2022-11-10T20:32:31.395Z,9.93
2022-11-10T20:35:00.630Z,11.63
2022-11-10T20:37:27.576Z,12.60
2022-11-10T20:39:54.518Z,14.33
2022-11-10T20:42:21.454Z,14.40
2022-11-10T20:44:48.353Z,14.37
2022-11-10T20:47:15.400Z,14.80
2022-11-10T20:49:42.370Z,15.43
2022-11-10T20:52:09.287Z,14.57
2022-11-10T20:54:36.205Z,14.90
2022-11-10T20:57:03.146Z,14.87
2022-11-10T20:59:30.206Z,15.30
2022-11-10T21:01:57.277Z,17.00
2022-11-10T21:04:24.259Z,16.27
2022-11-10T21:06:51.301Z,16.83
2022-11-10T21:09:18.297Z,17.83
2022-11-10T21:12:04.035Z,18.60
2022-11-10T21:14:30.948Z,19.33
2022-11-10T21:16:57.967Z,19.67
2022-11-10T21:19:24.924Z,20.07
2022-11-10T21:21:52.371Z,21.63
2022-11-10T21:24:19.670Z,22.23
2022-11-10T21:26:46.532Z,23.20
2022-11-10T21:29:13.459Z,24.37
2022-11-10T21:31:40.398Z,24.50
2022-11-10T21:34:07.284Z,24.30
2022-11-10T21:36:34.223Z,25.43
2022-11-10T21:39:01.208Z,25.43
2022-11-10T21:41:28.318Z,25.63
2022-11-10T21:43:55.248Z,24.40
2022-11-10T21:46:22.377Z,25.57
2022-11-10T21:48:52.731Z,25.50
2022-11-10T21:51:21.085Z,23.33
2022-11-10T21:53:48.919Z,23.87
2022-11-10T21:56:15.982Z,23.63
2022-11-10T21:58:43.052Z,25.03
2022-11-10T22:01:16.771Z,24.47
2022-11-10T22:03:43.890Z,23.50
2022-11-10T22:06:18.936Z,24.80
2022-11-10T22:08:47.794Z,25.87
2022-11-10T22:11:35.398Z,25.87
2022-11-10T22:14:21.844Z,27.67
2022-11-10T22:17:10.131Z,23.87
2022-11-10T22:19:37.594Z,24.23
2022-11-10T22:22:04.651Z,22.37
2022-11-10T22:24:31.889Z,21.30
2022-11-10T22:27:04.377Z,20.43
2022-11-10T22:29:33.496Z,19.27
2022-11-10T22:32:01.442Z,19.60
2022-11-10T22:34:28.402Z,19.07
2022-11-10T22:36:55.334Z,21.17
2022-11-10T22:39:22.270Z,20.17
2022-11-10T22:42:08.112Z,19.80
2022-11-10T22:44:35.005Z,18.73
2022-11-10T22:47:02.042Z,18.37
2022-11-10T22:49:28.938Z,18.67
2022-11-10T22:51:55.891Z,18.03
2022-11-10T22:54:24.087Z,18.40
2022-11-10T22:56:51.602Z,17.37
2022-11-10T22:59:19.498Z,18.33
2022-11-10T23:01:46.691Z,18.07
2022-11-10T23:04:15.866Z,17.23
2022-11-10T23:06:43.199Z,18.23
2022-11-10T23:09:10.220Z,18.07
2022-11-10T23:11:37.187Z,18.10
2022-11-10T23:14:04.196Z,17.97
2022-11-10T23:16:34.284Z,19.73
2022-11-10T23:19:01.793Z,22.20
2022-11-10T23:21:30.651Z,22.30
2022-11-10T23:23:57.851Z,25.63
2022-11-10T23:26:34.734Z,23.97
2022-11-10T23:29:01.640Z,23.97
2022-11-10T23:31:28.725Z,21.43
2022-11-10T23:33:57.526Z,21.20
2022-11-10T23:36:26.668Z,20.17
2022-11-10T23:38:55.305Z,19.23
2022-11-10T23:41:28.986Z,18.13
2022-11-10T23:43:56.178Z,17.13
2022-11-10T23:46:23.062Z,17.97
2022-11-10T23:48:50.158Z,17.60
2022-11-10T23:51:17.497Z,18.30
2022-11-10T23:53:44.450Z,17.57
2022-11-10T23:56:13.651Z,16.80
2022-11-10T23:58:41.164Z,16.53
